Time;durP1;ratioP1;P1;durP2;ratioP2;P2;SDS_P1;SDS_P2;PMS_P1;PMS_P2;Temp;Humidity;BMP_temperature;BMP_pressure;BME280_temperature;BME280_humidity;BME280_pressure;Samples;Min_cycle;Max_cycle;Signal;HPM_P1;HPM_P2
2022/03/05 00:02:18;;;;;;;52.10;32.30;;;;;;;6.93;72.34;99382.69;5095331;28;20284;-64
2022/03/05 00:04:45;;;;;;;42.17;30.13;;;;;;;6.97;72.77;99376.06;5094779;28;20732;-64
2022/03/05 00:07:12;;;;;;;47.77;28.63;;;;;;;7.00;72.13;99375.72;5094850;28;20724;-64
2022/03/05 00:09:38;;;;;;;46.73;29.57;;;;;;;6.97;71.96;99381.34;5095279;28;20198;-64
2022/03/05 00:12:06;;;;;;;47.47;30.60;;;;;;;6.94;72.19;99377.25;5095339;28;20197;-64
2022/03/05 00:14:34;;;;;;;44.00;28.87;;;;;;;6.97;72.51;99381.34;5094742;28;20278;-65
2022/03/05 00:17:00;;;;;;;41.03;27.23;;;;;;;6.99;71.99;99390.78;5095093;28;20197;-65
2022/03/05 00:19:27;;;;;;;38.70;27.90;;;;;;;6.98;71.36;99388.31;5094981;28;20251;-65
2022/03/05 00:21:54;;;;;;;39.67;26.47;;;;;;;6.98;71.87;99380.38;5095532;28;20254;-64
2022/03/05 00:24:21;;;;;;;42.07;27.13;;;;;;;7.00;71.96;99376.56;5095402;28;20287;-65
2022/03/05 00:26:47;;;;;;;35.67;25.73;;;;;;;7.01;72.35;99382.66;5095430;28;20191;-65
2022/03/05 00:29:14;;;;;;;38.03;25.87;;;;;;;7.00;71.13;99384.47;5094828;28;20747;-65
2022/03/05 00:31:42;;;;;;;37.57;24.80;;;;;;;6.98;71.07;99378.53;5094794;28;20200;-65
2022/03/05 00:34:09;;;;;;;32.27;24.83;;;;;;;6.95;71.26;99378.09;5094380;28;20215;-65
2022/03/05 00:36:37;;;;;;;38.80;25.80;;;;;;;6.85;71.27;99367.75;5095019;28;20193;-65
2022/03/05 00:39:04;;;;;;;42.27;28.27;;;;;;;6.89;71.41;99376.13;5094684;28;20284;-65
2022/03/05 00:41:31;;;;;;;38.17;26.13;;;;;;;6.84;70.74;99373.19;5094305;28;20634;-65
2022/03/05 00:43:58;;;;;;;41.60;27.87;;;;;;;6.76;71.51;99367.97;5095720;28;20230;-64
2022/03/05 00:46:25;;;;;;;43.27;27.70;;;;;;;6.63;72.72;99373.84;5094190;28;20576;-64
2022/03/05 00:48:54;;;;;;;37.80;26.00;;;;;;;6.55;73.49;99365.13;5094158;28;20670;-64
2022/03/05 00:51:20;;;;;;;42.90;27.60;;;;;;;6.59;73.11;99369.06;5094695;28;20197;-64
2022/03/05 00:53:47;;;;;;;41.73;28.43;;;;;;;6.57;73.04;99379.00;5093890;28;20223;-64
2022/03/05 00:56:14;;;;;;;41.17;27.13;;;;;;;6.62;73.24;99379.28;5094576;28;20249;-64
2022/03/05 00:58:40;;;;;;;32.97;25.07;;;;;;;6.64;72.51;99377.28;5094280;28;20201;-64
2022/03/05 01:01:07;;;;;;;40.13;27.87;;;;;;;6.62;72.55;99381.91;5093926;28;20264;-64
2022/03/05 01:03:34;;;;;;;36.27;25.33;;;;;;;6.60;72.09;99375.97;5093842;28;20729;-64
2022/03/05 01:06:02;;;;;;;40.17;27.77;;;;;;;6.54;73.00;99369.59;5094145;28;20248;-64
2022/03/05 01:08:29;;;;;;;39.73;26.77;;;;;;;6.54;72.23;99369.59;5094234;28;20222;-64
2022/03/05 01:10:55;;;;;;;43.40;26.20;;;;;;;6.46;73.17;99366.19;5093704;28;20733;-64
2022/03/05 01:13:22;;;;;;;41.30;25.60;;;;;;;6.39;73.41;99365.22;5094029;28;20189;-65
2022/03/05 01:15:49;;;;;;;40.33;26.63;;;;;;;6.33;73.54;99371.19;5094102;28;20270;-65
2022/03/05 01:18:15;;;;;;;35.10;24.60;;;;;;;6.28;73.85;99368.25;5094685;28;20242;-65
2022/03/05 01:20:42;;;;;;;37.33;24.90;;;;;;;6.26;74.56;99372.88;5093829;28;20246;-64
2022/03/05 01:23:10;;;;;;;35.97;26.10;;;;;;;6.32;73.95;99372.19;5093495;28;20197;-65
2022/03/05 01:25:37;;;;;;;40.13;25.53;;;;;;;6.29;73.61;99369.88;5093367;28;20250;-65
2022/03/05 01:28:04;;;;;;;41.43;26.13;;;;;;;6.25;73.90;99374.66;5093650;28;20247;-65
2022/03/05 01:30:31;;;;;;;38.53;25.20;;;;;;;6.24;73.90;99373.03;5093627;28;20214;-65
2022/03/05 01:32:58;;;;;;;29.60;21.83;;;;;;;6.30;73.56;99376.81;5093285;28;20658;-65
2022/03/05 01:35:24;;;;;;;26.73;20.17;;;;;;;6.31;71.95;99384.56;5093134;28;20771;-65
2022/03/05 01:37:51;;;;;;;28.13;19.53;;;;;;;6.27;70.39;99392.97;5093235;28;20704;-65
2022/03/05 01:40:19;;;;;;;24.10;17.30;;;;;;;6.38;69.76;99390.78;5093754;28;20196;-65
2022/03/05 01:42:46;;;;;;;21.13;17.57;;;;;;;6.45;67.81;99398.84;5093318;28;20258;-65
2022/03/05 01:45:13;;;;;;;22.20;16.67;;;;;;;6.54;67.89;99400.44;5093459;28;20208;-65
2022/03/05 01:47:40;;;;;;;22.97;17.27;;;;;;;6.62;66.82;99403.03;5092852;28;20681;-65
2022/03/05 01:50:08;;;;;;;21.33;17.83;;;;;;;6.68;65.99;99391.78;5092997;28;20199;-65
2022/03/05 01:52:35;;;;;;;24.97;18.50;;;;;;;6.71;66.82;99396.72;5093642;28;20248;-65
2022/03/05 01:55:02;;;;;;;26.43;19.27;;;;;;;6.72;67.24;99391.25;5093101;28;20219;-65
2022/03/05 01:57:30;;;;;;;24.20;19.17;;;;;;;6.75;67.61;99398.00;5093185;28;20194;-65
2022/03/05 01:59:58;;;;;;;25.80;19.27;;;;;;;6.77;67.73;99398.66;5093169;28;20249;-65
2022/03/05 02:02:25;;;;;;;24.73;18.67;;;;;;;6.77;67.22;99396.03;5092754;28;20187;-65
2022/03/05 02:04:51;;;;;;;23.70;18.63;;;;;;;6.78;66.74;99395.03;5092258;28;20195;-64
2022/03/05 02:07:18;;;;;;;25.37;18.50;;;;;;;6.79;66.36;99404.59;5092979;28;20193;-65
2022/03/05 02:09:45;;;;;;;32.80;22.77;;;;;;;6.80;66.82;99409.69;5093213;28;20198;-65
2022/03/05 02:12:11;;;;;;;32.70;21.83;;;;;;;6.77;67.22;99401.31;5092921;28;20191;-65
2022/03/05 02:14:39;;;;;;;32.80;21.63;;;;;;;6.75;67.73;99398.84;5092726;28;20219;-64
2022/03/05 02:17:06;;;;;;;32.93;22.87;;;;;;;6.74;68.73;99399.81;5093167;28;20209;-65
2022/03/05 02:19:33;;;;;;;35.63;23.17;;;;;;;6.76;69.15;99397.00;5093073;28;20193;-65
2022/03/05 02:22:01;;;;;;;36.43;23.57;;;;;;;6.74;68.88;99393.72;5093033;28;20195;-65
2022/03/05 02:24:34;;;;;;;33.50;22.37;;;;;;;6.76;68.21;99397.00;5092987;28;20195;-65
2022/03/05 02:27:02;;;;;;;30.70;22.20;;;;;;;6.78;68.16;99397.66;5091790;28;20656;-64
2022/03/05 02:29:29;;;;;;;26.23;20.23;;;;;;;6.74;67.99;99397.16;5092317;28;20195;-65
2022/03/05 02:31:56;;;;;;;27.80;21.53;;;;;;;6.71;67.59;99396.72;5092566;28;20249;-65
2022/03/05 02:34:23;;;;;;;28.20;21.13;;;;;;;6.65;67.28;99395.59;5093266;28;20187;-65
2022/03/05 02:36:50;;;;;;;30.07;22.03;;;;;;;6.64;67.63;99388.66;5093059;28;20256;-64
2022/03/05 02:39:18;;;;;;;29.13;21.30;;;;;;;6.64;67.55;99393.13;5092216;28;20726;-64
2022/03/05 02:41:45;;;;;;;30.17;21.70;;;;;;;6.60;66.95;99390.00;5086065;28;20281;-64
2022/03/05 02:44:12;;;;;;;31.97;22.43;;;;;;;6.58;67.57;99396.47;5080997;28;20191;-65
2022/03/05 02:46:38;;;;;;;33.33;23.10;;;;;;;6.54;67.67;99395.16;5081390;28;20187;-65
2022/03/05 02:49:05;;;;;;;33.40;23.20;;;;;;;6.50;67.70;99399.13;5082893;28;20217;-65
2022/03/05 02:51:32;;;;;;;33.70;22.53;;;;;;;6.47;67.24;99400.31;5082545;28;20253;-65
2022/03/05 02:53:59;;;;;;;34.67;23.23;;;;;;;6.35;68.33;99398.19;5081639;28;20221;-64
2022/03/05 02:56:27;;;;;;;38.07;23.97;;;;;;;6.22;68.84;99405.84;5080593;28;20219;-65
2022/03/05 02:58:53;;;;;;;34.60;24.07;;;;;;;6.14;69.81;99393.53;5076572;28;20199;-64
2022/03/05 03:01:20;;;;;;;41.67;24.77;;;;;;;6.09;70.02;99387.09;5072345;28;20332;-64
2022/03/05 03:03:47;;;;;;;39.33;25.37;;;;;;;6.00;70.17;99385.50;5072618;28;20253;-64
2022/03/05 03:06:15;;;;;;;38.50;24.27;;;;;;;5.99;70.62;99383.81;5072280;28;20195;-64
2022/03/05 03:08:41;;;;;;;33.03;23.37;;;;;;;6.02;70.51;99392.25;5071988;28;20583;-64
2022/03/05 03:11:08;;;;;;;38.80;24.03;;;;;;;6.02;70.93;99386.97;5071852;28;20285;-64
2022/03/05 03:13:37;;;;;;;33.93;23.03;;;;;;;6.10;70.71;99386.94;5071923;28;20270;-64
2022/03/05 03:16:05;;;;;;;36.17;23.40;;;;;;;6.11;70.62;99393.03;5072635;28;20306;-64
2022/03/05 03:18:31;;;;;;;38.00;24.13;;;;;;;6.04;70.77;99392.06;5075545;28;20218;-66
2022/03/05 03:20:58;;;;;;;37.47;24.27;;;;;;;6.00;70.67;99398.69;5075913;28;20188;-65
2022/03/05 03:23:25;;;;;;;34.87;23.93;;;;;;;6.02;71.35;99400.16;5076444;28;20201;-64
2022/03/05 03:25:51;;;;;;;36.63;23.77;;;;;;;6.11;71.20;99403.56;5075788;28;20269;-64
2022/03/05 03:28:18;;;;;;;36.00;23.67;;;;;;;6.15;71.60;99400.44;5075382;28;20251;-64
2022/03/05 03:30:46;;;;;;;32.87;22.30;;;;;;;6.16;71.34;99411.81;5075746;28;20191;-64
2022/03/05 03:33:13;;;;;;;34.50;23.00;;;;;;;6.07;71.58;99407.53;5076448;28;20188;-64
2022/03/05 03:35:40;;;;;;;36.30;24.00;;;;;;;6.03;72.32;99411.50;5075227;28;20753;-65
2022/03/05 03:38:06;;;;;;;32.90;23.87;;;;;;;6.05;71.99;99410.38;5076425;28;20192;-65
2022/03/05 03:40:33;;;;;;;35.97;24.13;;;;;;;5.95;72.31;99415.00;5075154;28;20245;-64
2022/03/05 03:43:00;;;;;;;40.23;23.97;;;;;;;5.90;72.50;99413.84;5075115;28;20228;-65
2022/03/05 03:45:26;;;;;;;44.77;25.37;;;;;;;5.89;72.71;99414.84;5074898;28;20200;-65
2022/03/05 03:47:55;;;;;;;35.50;23.77;;;;;;;5.93;72.61;99416.16;5074984;28;20200;-64
2022/03/05 03:50:24;;;;;;;39.93;24.73;;;;;;;6.01;72.70;99416.13;5075066;28;20274;-64
2022/03/05 03:52:51;;;;;;;33.10;24.07;;;;;;;6.03;71.98;99414.97;5075538;28;20245;-65
2022/03/05 03:55:19;;;;;;;36.80;24.03;;;;;;;6.05;72.06;99414.81;5075180;28;20224;-65
2022/03/05 03:57:46;;;;;;;41.03;24.93;;;;;;;6.02;72.42;99420.41;5074910;28;20249;-65
2022/03/05 04:00:16;;;;;;;35.93;22.23;;;;;;;6.07;72.71;99421.56;5075892;28;20246;-65
2022/03/05 04:02:43;;;;;;;38.03;24.07;;;;;;;6.11;72.64;99424.66;5075515;28;20261;-65
2022/03/05 04:05:12;;;;;;;31.23;22.83;;;;;;;6.14;72.98;99413.78;5075047;28;20196;-65
2022/03/05 04:10:24;;;;;;;38.47;25.60;;;;;;;6.05;73.58;99428.81;5074998;28;20599;-65
2022/03/05 04:12:51;;;;;;;44.70;26.77;;;;;;;6.02;73.31;99430.94;5074587;28;20664;-65
2022/03/05 04:15:18;;;;;;;40.90;25.97;;;;;;;5.97;73.48;99428.84;5075374;28;20224;-65
2022/03/05 04:17:45;;;;;;;44.17;27.00;;;;;;;5.92;74.43;99430.34;5075679;28;20274;-65
2022/03/05 04:20:13;;;;;;;41.23;26.10;;;;;;;6.00;74.15;99427.69;5074441;28;20203;-64
2022/03/05 04:22:40;;;;;;;43.87;27.57;;;;;;;6.01;74.41;99437.22;5074410;28;20245;-65
2022/03/05 04:25:07;;;;;;;40.00;24.70;;;;;;;6.05;74.35;99430.63;5074447;28;20229;-65
2022/03/05 04:27:34;;;;;;;35.87;25.83;;;;;;;5.98;74.32;99435.75;5073574;28;20188;-65
2022/03/05 04:30:01;;;;;;;36.83;25.37;;;;;;;5.93;75.16;99437.25;5074891;28;20284;-64
2022/03/05 04:32:28;;;;;;;36.20;25.37;;;;;;;5.91;75.67;99433.97;5074231;28;20572;-64
2022/03/05 04:34:54;;;;;;;36.50;25.50;;;;;;;5.88;75.39;99434.28;5074454;28;20277;-64
2022/03/05 04:37:22;;;;;;;43.03;26.73;;;;;;;5.90;75.64;99437.56;5074517;28;20246;-64
2022/03/05 04:39:49;;;;;;;43.37;28.70;;;;;;;5.79;75.64;99429.00;5074390;28;20261;-64
2022/03/05 04:42:16;;;;;;;47.13;27.60;;;;;;;5.74;76.54;99431.31;5074968;28;20645;-64
2022/03/05 04:44:43;;;;;;;41.80;27.47;;;;;;;5.76;76.42;99431.97;5074337;28;20188;-64
2022/03/05 04:47:09;;;;;;;50.30;27.20;;;;;;;5.75;76.94;99434.75;5073987;28;20325;-64
2022/03/05 04:49:36;;;;;;;49.30;29.93;;;;;;;5.77;76.72;99440.69;5073891;28;20196;-64
2022/03/05 04:52:03;;;;;;;44.97;27.67;;;;;;;5.79;76.91;99441.34;5074164;28;20196;-64
2022/03/05 04:54:33;;;;;;;41.97;26.93;;;;;;;5.75;76.91;99440.03;5074167;28;20195;-64
2022/03/05 04:57:00;;;;;;;43.80;27.43;;;;;;;5.77;77.15;99438.06;5073706;28;20696;-65
2022/03/05 04:59:27;;;;;;;45.37;28.53;;;;;;;5.83;77.02;99432.16;5074075;28;20191;-65
2022/03/05 05:01:53;;;;;;;46.33;29.70;;;;;;;5.80;77.98;99442.97;5074719;28;20200;-65
2022/03/05 05:04:20;;;;;;;41.67;27.57;;;;;;;5.88;77.26;99434.28;5073916;28;20238;-65
2022/03/05 05:06:47;;;;;;;39.60;26.20;;;;;;;5.93;77.13;99442.50;5074138;28;20196;-65
2022/03/05 05:09:13;;;;;;;38.40;26.13;;;;;;;5.93;77.66;99450.41;5073869;28;20229;-65
2022/03/05 05:11:42;;;;;;;34.03;23.30;;;;;;;5.95;77.44;99445.81;5073453;28;20196;-65
2022/03/05 05:14:09;;;;;;;37.23;25.20;;;;;;;5.93;77.61;99458.31;5074062;28;20202;-65
2022/03/05 05:16:35;;;;;;;38.87;25.87;;;;;;;5.74;78.00;99430.47;5073348;28;20269;-65
2022/03/05 05:21:46;;;;;;;34.63;24.60;;;;;;;6.00;78.11;99467.22;5073958;28;20286;-65
2022/03/05 05:24:12;;;;;;;38.37;23.73;;;;;;;6.03;78.81;99469.50;5073228;28;20189;-65
2022/03/05 05:26:39;;;;;;;33.67;24.10;;;;;;;6.03;78.69;99469.50;5073821;28;20197;-65
2022/03/05 05:29:07;;;;;;;36.13;25.47;;;;;;;6.04;78.32;99469.34;5073043;28;20656;-64
2022/03/05 05:31:34;;;;;;;34.67;24.23;;;;;;;6.06;78.04;99470.00;5072938;28;20200;-65
2022/03/05 05:34:01;;;;;;;36.57;25.37;;;;;;;6.14;78.00;99474.44;5072928;28;20193;-64
2022/03/05 05:36:27;;;;;;;35.10;24.67;;;;;;;6.17;77.68;99471.47;5072896;28;20311;-65
2022/03/05 05:38:54;;;;;;;33.43;24.17;;;;;;;6.27;77.36;99485.28;5072676;28;20265;-65
2022/03/05 05:41:21;;;;;;;35.87;25.03;;;;;;;6.33;76.77;99490.69;5072750;28;20684;-65
2022/03/05 05:43:47;;;;;;;39.23;25.83;;;;;;;6.39;77.45;99492.66;5073219;28;20225;-65
2022/03/05 05:46:15;;;;;;;34.73;23.33;;;;;;;6.44;76.94;99500.88;5072502;28;20205;-65
2022/03/05 05:48:42;;;;;;;33.93;24.50;;;;;;;6.33;76.99;99498.59;5073463;28;20191;-65
2022/03/05 05:51:09;;;;;;;35.20;24.90;;;;;;;6.41;76.51;99503.84;5072549;28;20191;-65
2022/03/05 05:53:35;;;;;;;35.17;23.50;;;;;;;6.50;75.72;99510.78;5072438;28;20193;-65
2022/03/05 05:56:02;;;;;;;34.43;24.37;;;;;;;6.54;75.76;99519.16;5072396;28;20703;-65
2022/03/05 05:58:29;;;;;;;33.37;24.07;;;;;;;6.62;74.49;99524.41;5072428;28;20193;-65
2022/03/05 06:00:55;;;;;;;36.83;23.50;;;;;;;6.62;74.47;99525.22;5072364;28;20196;-65
2022/03/05 06:03:24;;;;;;;31.20;22.87;;;;;;;6.63;73.94;99518.16;5072612;28;20196;-65
2022/03/05 06:05:50;;;;;;;35.47;23.60;;;;;;;6.55;73.96;99523.44;5072476;28;20203;-64
2022/03/05 06:08:17;;;;;;;40.57;25.73;;;;;;;6.57;73.92;99526.75;5072111;28;20197;-65
2022/03/05 06:10:44;;;;;;;35.77;26.73;;;;;;;6.62;74.33;99525.22;5072133;28;20196;-64
2022/03/05 06:13:10;;;;;;;37.73;24.97;;;;;;;6.64;73.81;99527.69;5071993;28;20674;-65
2022/03/05 06:15:37;;;;;;;34.97;25.37;;;;;;;6.69;74.45;99531.47;5076268;28;20273;-68
2022/03/05 06:18:04;;;;;;;31.50;23.93;;;;;;;6.72;74.51;99536.44;5081098;28;20195;-68
2022/03/05 06:20:32;;;;;;;30.50;22.33;;;;;;;6.71;74.88;99528.66;5080872;28;20262;-68
2022/03/05 06:22:59;;;;;;;35.63;25.97;;;;;;;6.69;76.15;99535.94;5081735;28;20247;-68
2022/03/05 06:25:25;;;;;;;29.30;23.27;;;;;;;6.77;75.04;99543.84;5082813;28;20183;-68
2022/03/05 06:27:52;;;;;;;33.23;24.00;;;;;;;6.80;74.95;99538.19;5082744;28;20731;-67
2022/03/05 06:30:19;;;;;;;26.60;23.33;;;;;;;6.85;74.71;99535.88;5082461;28;20667;-68
2022/03/05 06:32:46;;;;;;;35.27;24.37;;;;;;;6.88;75.43;99538.16;5075952;28;20193;-68
2022/03/05 06:35:13;;;;;;;32.93;22.40;;;;;;;6.84;75.88;99528.94;5078992;28;20253;-70
2022/03/05 06:37:41;;;;;;;31.87;23.00;;;;;;;6.90;76.03;99544.91;5071706;28;20212;-69
2022/03/05 06:40:11;;;;;;;34.40;25.53;;;;;;;6.93;76.52;99546.41;5074037;28;20187;-69
2022/03/05 06:42:39;;;;;;;45.83;26.97;;;;;;;6.94;76.11;99545.41;5080386;28;20683;-69
2022/03/05 06:45:08;;;;;;;44.70;29.67;;;;;;;6.85;76.52;99551.69;5081282;28;20678;-68
2022/03/05 06:47:34;;;;;;;39.47;26.73;;;;;;;6.83;78.50;99553.72;5080086;28;20209;-68
2022/03/05 06:50:01;;;;;;;50.83;32.63;;;;;;;6.80;78.48;99559.31;5070696;28;20235;-69
2022/03/05 06:52:28;;;;;;;49.30;31.27;;;;;;;6.62;79.60;99540.25;5071300;28;20253;-67
2022/03/05 06:54:57;;;;;;;37.33;25.73;;;;;;;6.47;80.71;99563.03;5071681;28;20252;-68
2022/03/05 06:57:24;;;;;;;39.33;26.77;;;;;;;6.30;82.38;99561.44;5071529;28;20611;-68
2022/03/05 06:59:51;;;;;;;42.87;27.77;;;;;;;6.10;83.71;99560.13;5071660;28;20246;-67
2022/03/05 07:02:18;;;;;;;45.07;30.20;;;;;;;5.94;84.77;99568.88;5070876;28;20205;-71
2022/03/05 07:04:45;;;;;;;46.43;32.57;;;;;;;5.85;85.46;99579.56;5080593;28;20195;-70
2022/03/05 07:07:11;;;;;;;50.27;33.60;;;;;;;5.73;86.99;99576.41;5082869;28;20191;-72
2022/03/05 07:09:38;;;;;;;50.03;32.53;;;;;;;5.60;88.04;99579.50;5091952;28;20265;-71
2022/03/05 07:12:07;;;;;;;50.70;31.73;;;;;;;5.59;88.59;99579.66;5077197;28;20276;-72
2022/03/05 07:14:34;;;;;;;45.30;30.53;;;;;;;5.63;88.87;99579.19;5080049;28;20255;-73
2022/03/05 07:17:01;;;;;;;42.83;29.93;;;;;;;5.59;89.27;99583.13;5083510;28;20265;-67
2022/03/05 07:19:27;;;;;;;52.17;33.00;;;;;;;5.52;89.15;99582.13;5083697;28;20191;-67
2022/03/05 07:21:54;;;;;;;58.07;33.60;;;;;;;5.62;89.46;99582.00;5069607;28;20261;-68
2022/03/05 07:24:21;;;;;;;56.97;34.67;;;;;;;5.70;90.02;99577.56;5069876;28;20258;-68
2022/03/05 07:26:48;;;;;;;56.63;36.80;;;;;;;5.69;89.95;99575.09;5071691;28;20230;-70
2022/03/05 07:29:16;;;;;;;67.10;37.43;;;;;;;5.67;90.52;99569.97;5071235;28;20752;-70
2022/03/05 07:31:42;;;;;;;61.93;36.37;;;;;;;5.92;91.28;99589.28;5071640;28;20200;-69
2022/03/05 07:34:09;;;;;;;64.57;39.97;;;;;;;5.98;90.46;99590.44;5071559;28;20196;-71
2022/03/05 07:36:36;;;;;;;59.10;37.83;;;;;;;6.04;90.22;99581.91;5077763;28;20207;-68
2022/03/05 07:39:04;;;;;;;62.97;41.20;;;;;;;5.96;90.70;99579.25;5090566;28;20222;-67
2022/03/05 07:41:30;;;;;;;69.57;41.70;;;;;;;5.92;91.42;99591.13;5109854;28;20203;-68
2022/03/05 07:43:57;;;;;;;51.13;34.37;;;;;;;5.90;92.01;99585.16;5112195;28;20245;-70
2022/03/05 07:46:26;;;;;;;44.30;33.60;;;;;;;5.91;92.42;99582.38;5111720;28;20251;-69
2022/03/05 07:48:53;;;;;;;50.20;35.07;;;;;;;5.85;92.38;99583.03;5083953;28;20202;-83
2022/03/05 07:51:19;;;;;;;52.03;33.67;;;;;;;5.93;93.25;99590.13;5074005;28;20672;-81
2022/03/05 07:53:46;;;;;;;56.80;37.60;;;;;;;5.85;92.72;99582.22;5091145;28;20191;-80
2022/03/05 07:56:13;;;;;;;46.77;31.07;;;;;;;5.61;93.03;99565.34;5083028;28;20645;-81
2022/03/05 07:58:40;;;;;;;39.93;30.73;;;;;;;5.79;93.40;99592.41;5071073;28;20222;-77
2022/03/05 08:01:06;;;;;;;41.53;30.00;;;;;;;5.83;93.97;99598.19;5071048;28;20556;-78
2022/03/05 08:03:34;;;;;;;38.27;29.13;;;;;;;5.99;94.90;99594.72;5072105;28;20200;-81
2022/03/05 08:06:01;;;;;;;40.23;28.13;;;;;;;6.06;93.78;99591.28;5074492;28;20725;-76
2022/03/05 08:08:28;;;;;;;41.43;28.03;;;;;;;6.14;92.97;99598.38;5073585;28;20197;-79
2022/03/05 08:10:55;;;;;;;40.03;27.40;;;;;;;6.18;93.12;99591.78;5083122;28;20266;-76
2022/03/05 08:13:22;;;;;;;41.40;29.47;;;;;;;6.23;92.15;99586.81;5114335;28;20222;-80
2022/03/05 08:15:49;;;;;;;46.03;33.10;;;;;;;6.20;91.97;99589.81;5114998;28;20226;-77
2022/03/05 08:18:16;;;;;;;47.33;32.03;;;;;;;6.15;91.35;99595.56;5115671;28;20223;-78
2022/03/05 08:20:44;;;;;;;42.60;31.07;;;;;;;6.01;91.48;99596.25;5115511;28;20260;-81
2022/03/05 08:23:11;;;;;;;41.03;31.37;;;;;;;6.04;92.37;99595.88;5095476;28;20193;-83
2022/03/05 08:25:37;;;;;;;46.13;31.10;;;;;;;6.02;92.74;99592.59;5094565;28;20253;-80
2022/03/05 08:28:04;;;;;;;56.67;36.97;;;;;;;6.00;93.14;99596.41;5094397;28;20743;-81
2022/03/05 08:30:31;;;;;;;47.37;31.47;;;;;;;5.96;93.17;99600.34;5094468;28;20188;-79
2022/03/05 08:32:58;;;;;;;44.77;30.50;;;;;;;5.88;93.26;99602.97;5094919;28;20518;-79
2022/03/05 08:35:25;;;;;;;42.27;30.73;;;;;;;5.85;94.37;99601.50;5094641;28;20193;-81
2022/03/05 08:37:53;;;;;;;41.80;28.77;;;;;;;5.71;94.24;99597.66;5094272;28;20220;-79
2022/03/05 08:40:21;;;;;;;46.63;30.33;;;;;;;5.67;94.69;99591.06;5101126;28;20259;-81
2022/03/05 08:42:49;;;;;;;49.03;32.20;;;;;;;5.66;95.38;99592.06;5115357;28;20635;-83
2022/03/05 08:45:16;;;;;;;41.57;30.67;;;;;;;5.87;96.20;99617.97;5113716;28;20194;-77
2022/03/05 08:47:44;;;;;;;42.40;30.17;;;;;;;5.88;95.53;99616.16;5094504;28;20256;-78
2022/03/05 08:50:11;;;;;;;39.57;28.90;;;;;;;5.90;95.68;99611.53;5093942;28;20237;-80
2022/03/05 08:52:38;;;;;;;48.20;31.97;;;;;;;5.90;94.93;99617.63;5094566;28;20187;-80
2022/03/05 08:55:09;;;;;;;46.20;31.63;;;;;;;5.95;96.05;99612.69;5093956;28;20253;-79
2022/03/05 08:57:35;;;;;;;45.33;32.50;;;;;;;6.02;95.48;99621.59;5094915;28;20664;-77
2022/03/05 09:00:04;;;;;;;47.30;32.47;;;;;;;6.11;94.80;99617.97;5094025;28;20572;-77
2022/03/05 09:02:31;;;;;;;48.33;34.20;;;;;;;6.26;94.20;99624.25;5094256;28;20268;-78
2022/03/05 09:04:58;;;;;;;47.93;33.17;;;;;;;6.34;93.32;99623.41;5093844;28;20731;-80
2022/03/05 09:07:25;;;;;;;44.83;30.33;;;;;;;6.37;93.93;99625.72;5093758;28;20737;-81
2022/03/05 09:09:52;;;;;;;40.07;28.80;;;;;;;6.37;91.17;99631.00;5093997;28;20191;-78
2022/03/05 09:12:20;;;;;;;41.47;31.37;;;;;;;6.32;91.61;99617.50;5073380;28;20266;-80
2022/03/05 09:14:48;;;;;;;40.77;31.03;;;;;;;6.41;92.78;99627.03;5073056;28;20256;-78
2022/03/05 09:17:15;;;;;;;39.87;28.67;;;;;;;6.43;92.16;99630.31;5073241;28;20595;-78
2022/03/05 09:19:42;;;;;;;41.97;29.47;;;;;;;6.47;91.60;99631.63;5073339;28;20661;-79
2022/03/05 09:22:10;;;;;;;43.70;32.20;;;;;;;6.50;92.16;99637.44;5073521;28;20219;-78
2022/03/05 09:24:37;;;;;;;47.10;31.47;;;;;;;6.58;92.03;99631.31;5090145;28;20195;-79
2022/03/05 09:27:04;;;;;;;45.63;32.60;;;;;;;6.61;90.78;99633.63;5093206;28;20664;-79
2022/03/05 09:29:32;;;;;;;46.97;33.53;;;;;;;6.72;90.10;99630.59;5107345;28;20194;-79
2022/03/05 09:31:59;;;;;;;43.57;31.67;;;;;;;6.84;88.80;99630.09;5114711;28;20188;-79
2022/03/05 09:34:25;;;;;;;44.60;30.57;;;;;;;6.95;86.73;99636.84;5113442;28;20199;-81
2022/03/05 09:36:55;;;;;;;48.53;32.37;;;;;;;6.87;87.28;99623.66;5113405;28;20218;-81
2022/03/05 09:39:22;;;;;;;47.20;32.40;;;;;;;6.93;88.12;99628.25;5113908;28;20234;-78
2022/03/05 09:41:49;;;;;;;45.07;30.80;;;;;;;7.04;87.40;99641.09;5111263;28;20691;-79
2022/03/05 09:44:16;;;;;;;39.27;29.37;;;;;;;7.12;86.38;99649.00;5087562;28;20186;-80
2022/03/05 09:46:45;;;;;;;39.20;29.07;;;;;;;7.15;85.21;99644.19;5076941;28;20265;-78
2022/03/05 09:49:12;;;;;;;41.70;29.47;;;;;;;7.19;85.76;99644.69;5083030;28;20191;-78
2022/03/05 09:51:39;;;;;;;41.83;28.37;;;;;;;7.28;85.25;99648.94;5083663;28;20201;-79
2022/03/05 09:54:06;;;;;;;40.53;27.73;;;;;;;7.41;85.08;99644.75;5077244;28;20662;-78
2022/03/05 09:56:32;;;;;;;41.17;28.67;;;;;;;7.50;83.66;99637.59;5082676;28;20610;-80
2022/03/05 09:58:59;;;;;;;38.53;28.20;;;;;;;7.62;84.66;99634.41;5095597;28;20190;-79
2022/03/05 10:01:26;;;;;;;37.17;28.20;;;;;;;7.77;84.85;99639.78;5089011;27;20191;-79
2022/03/05 10:03:56;;;;;;;40.47;27.83;;;;;;;7.92;83.52;99638.03;5092499;28;20278;-78
2022/03/05 10:06:24;;;;;;;45.57;30.80;;;;;;;7.99;82.51;99636.31;5092771;28;20198;-73
2022/03/05 10:08:51;;;;;;;37.67;29.13;;;;;;;8.07;83.17;99628.31;5092510;28;20256;-73
2022/03/05 10:11:18;;;;;;;43.30;29.90;;;;;;;8.17;82.67;99623.63;5080720;28;20247;-76
2022/03/05 10:13:46;;;;;;;40.03;28.37;;;;;;;8.32;82.92;99627.16;5072191;28;20204;-74
2022/03/05 10:16:24;;;;;;;41.03;29.30;;;;;;;8.34;82.75;99611.94;5072810;28;20193;-74
2022/03/05 10:18:52;;;;;;;39.30;28.13;;;;;;;8.49;83.17;99628.69;5071933;28;20309;-74
2022/03/05 10:21:27;;;;;;;38.33;28.13;;;;;;;8.59;83.37;99622.13;5072263;28;20257;-73
2022/03/05 10:24:05;;;;;;;36.87;27.37;;;;;;;8.71;80.05;99625.16;5072115;28;20188;-74
2022/03/05 10:26:53;;;;;;;38.73;27.27;;;;;;;8.81;81.20;99623.88;5071622;28;20183;-74
2022/03/05 10:29:22;;;;;;;36.00;27.57;;;;;;;8.80;80.76;99624.88;5071706;28;20192;-74
2022/03/05 10:31:56;;;;;;;37.07;28.63;;;;;;;8.89;83.50;99615.00;5073340;28;20637;-73
2022/03/05 10:34:23;;;;;;;32.77;23.90;;;;;;;9.17;79.38;99626.63;5112400;28;20675;-75
2022/03/05 10:37:00;;;;;;;30.77;23.67;;;;;;;9.45;77.54;99625.78;5112639;28;20190;-73
2022/03/05 10:39:27;;;;;;;29.17;22.93;;;;;;;9.68;75.27;99630.94;5113277;28;20193;-74
2022/03/05 10:41:55;;;;;;;28.73;23.97;;;;;;;9.78;72.46;99626.97;5112005;28;20198;-72
2022/03/05 10:44:23;;;;;;;30.07;24.00;;;;;;;9.87;74.78;99617.06;5112866;28;20179;-72
2022/03/05 10:46:56;;;;;;;31.17;24.67;;;;;;;10.05;76.49;99613.00;5112274;28;20191;-72
2022/03/05 10:49:25;;;;;;;30.10;23.70;;;;;;;10.11;73.46;99616.72;5097336;28;20213;-75
2022/03/05 10:52:03;;;;;;;28.03;23.40;;;;;;;10.18;74.42;99617.63;5072114;28;20253;-74
2022/03/05 10:54:35;;;;;;;24.50;22.00;;;;;;;10.23;70.81;99609.91;5076913;28;20710;-72
2022/03/05 10:57:09;;;;;;;28.80;22.30;;;;;;;10.33;69.97;99621.81;5091607;28;20248;-73
2022/03/05 10:59:37;;;;;;;27.83;23.60;;;;;;;10.41;69.32;99619.03;5092250;28;20247;-73
2022/03/05 11:02:04;;;;;;;27.50;22.57;;;;;;;10.34;69.31;99612.84;5092148;28;20244;-73
2022/03/05 11:04:30;;;;;;;26.37;21.60;;;;;;;10.35;70.12;99608.38;5091561;28;20240;-73
2022/03/05 11:06:59;;;;;;;25.83;22.03;;;;;;;10.26;69.98;99593.59;5091613;28;20663;-73
2022/03/05 11:09:27;;;;;;;27.43;22.93;;;;;;;10.31;70.69;99604.44;5092255;28;20187;-75
2022/03/05 11:11:56;;;;;;;30.50;22.53;;;;;;;10.32;69.99;99611.41;5074757;28;20579;-73
2022/03/05 11:14:24;;;;;;;34.23;22.37;;;;;;;10.33;67.92;99607.72;5071835;28;20187;-72
2022/03/05 11:16:51;;;;;;;27.90;23.30;;;;;;;10.34;70.26;99596.09;5071179;28;20248;-76
2022/03/05 11:19:18;;;;;;;26.13;22.33;;;;;;;10.25;71.04;99597.25;5071744;28;20192;-76
2022/03/05 11:21:45;;;;;;;27.57;23.40;;;;;;;10.29;72.08;99578.09;5071437;28;20200;-75
2022/03/05 11:24:14;;;;;;;28.87;22.83;;;;;;;10.36;71.68;99572.81;5071654;28;20192;-75
2022/03/05 11:26:41;;;;;;;25.93;22.20;;;;;;;10.35;72.67;99565.88;5070239;28;20263;-75
2022/03/05 11:29:10;;;;;;;28.30;22.03;;;;;;;10.24;71.33;99569.88;5069945;28;20340;-75
2022/03/05 11:31:36;;;;;;;26.57;23.37;;;;;;;10.14;71.53;99558.75;5071374;28;20655;-75